createdAt,value
2023-02-25T00:00:22.511Z,5.30
2023-02-25T00:03:23.999Z,5.20
2023-02-25T00:06:27.394Z,5.10
2023-02-25T00:09:29.449Z,5.20
2023-02-25T00:12:30.945Z,5.20
2023-02-25T00:15:32.597Z,5.20
2023-02-25T00:18:34.680Z,5.00
2023-02-25T00:21:36.303Z,4.50
2023-02-25T00:24:37.800Z,5.10
2023-02-25T00:27:39.685Z,5.00
2023-02-25T00:30:42.508Z,4.70
2023-02-25T00:33:44.440Z,4.90
2023-02-25T00:36:46.052Z,5.00
2023-02-25T00:39:47.624Z,4.90
2023-02-25T00:42:49.552Z,5.40
2023-02-25T00:45:51.039Z,5.40
2023-02-25T00:48:52.631Z,6.50
2023-02-25T00:51:56.716Z,4.90
2023-02-25T00:54:59.098Z,4.90
2023-02-25T00:58:01.235Z,6.10
2023-02-25T01:01:03.092Z,4.90
2023-02-25T01:04:04.584Z,6.50
2023-02-25T01:07:06.755Z,5.10
2023-02-25T01:10:10.560Z,4.70
2023-02-25T01:13:12.387Z,5.30
2023-02-25T01:16:18.208Z,4.70
2023-02-25T01:19:21.421Z,4.60
2023-02-25T01:22:23.319Z,4.80
2023-02-25T01:25:25.593Z,4.90
2023-02-25T01:28:28.738Z,6.40
2023-02-25T01:31:31.255Z,4.60
2023-02-25T01:34:33.341Z,4.60
2023-02-25T01:37:34.865Z,4.50
2023-02-25T01:40:37.713Z,4.70
2023-02-25T01:43:40.095Z,4.60
2023-02-25T01:46:42.834Z,6.50
2023-02-25T01:49:46.190Z,4.40
2023-02-25T01:52:47.995Z,4.60
2023-02-25T01:55:49.581Z,4.80
2023-02-25T01:58:51.504Z,4.30
2023-02-25T02:01:53.132Z,4.90
2023-02-25T02:04:55.512Z,4.80
2023-02-25T02:07:57.060Z,4.40
2023-02-25T02:10:58.630Z,4.80
2023-02-25T02:14:01.427Z,4.90
2023-02-25T02:17:20.681Z,4.70
2023-02-25T02:20:48.545Z,4.90
2023-02-25T02:24:01.051Z,4.70
2023-02-25T02:27:09.348Z,4.90
2023-02-25T02:30:36.939Z,5.00
2023-02-25T02:33:47.773Z,5.00
2023-02-25T02:36:54.586Z,5.10
2023-02-25T02:40:15.270Z,5.10
2023-02-25T02:43:16.730Z,4.80
2023-02-25T02:46:21.402Z,4.90
2023-02-25T02:49:55.362Z,4.70
2023-02-25T02:52:59.716Z,4.60
2023-02-25T02:56:03.990Z,4.60
2023-02-25T02:59:08.343Z,5.20
2023-02-25T03:02:18.021Z,4.30
2023-02-25T03:05:20.050Z,4.90
2023-02-25T03:08:31.663Z,4.60
2023-02-25T03:11:33.589Z,4.80
2023-02-25T03:14:38.019Z,5.00
2023-02-25T03:17:42.234Z,4.60
2023-02-25T03:20:45.774Z,4.70
2023-02-25T03:23:48.060Z,4.70
2023-02-25T03:26:50.442Z,5.00
2023-02-25T03:29:52.528Z,4.90
2023-02-25T03:33:03.221Z,4.70
2023-02-25T03:36:11.772Z,4.90
2023-02-25T03:39:21.386Z,4.70
2023-02-25T03:42:25.218Z,4.90
2023-02-25T03:45:26.980Z,4.40
2023-02-25T03:48:29.236Z,4.80
2023-02-25T03:51:32.932Z,4.50
2023-02-25T03:54:34.447Z,2.30
2023-02-25T03:57:40.609Z,4.60
2023-02-25T04:00:44.157Z,4.70
2023-02-25T04:03:45.754Z,4.60
2023-02-25T04:06:47.697Z,4.60
2023-02-25T04:09:49.179Z,4.80
2023-02-25T04:12:51.183Z,4.40
2023-02-25T04:15:52.690Z,4.90
2023-02-25T04:18:54.216Z,4.90
2023-02-25T04:21:55.678Z,6.20
2023-02-25T04:24:57.135Z,4.60
2023-02-25T04:27:58.628Z,4.40
2023-02-25T04:31:00.138Z,4.80
2023-02-25T04:34:01.727Z,4.80
2023-02-25T04:37:04.566Z,4.50
2023-02-25T04:40:12.153Z,4.50
2023-02-25T04:43:13.625Z,4.70
2023-02-25T04:46:15.197Z,4.80
2023-02-25T04:49:16.924Z,4.80
2023-02-25T04:52:18.449Z,4.90
2023-02-25T04:55:19.972Z,4.60
2023-02-25T04:58:21.487Z,4.80
2023-02-25T05:01:23.073Z,4.70
2023-02-25T05:04:24.625Z,4.60
2023-02-25T05:07:26.117Z,4.80
2023-02-25T05:10:27.580Z,4.40
2023-02-25T05:13:29.338Z,4.70
2023-02-25T05:16:30.882Z,5.00
2023-02-25T05:19:32.487Z,4.90
2023-02-25T05:22:34.089Z,4.60
2023-02-25T05:25:35.647Z,4.70
2023-02-25T05:28:37.677Z,4.90
2023-02-25T05:31:39.752Z,4.50
2023-02-25T05:34:41.634Z,4.90
2023-02-25T05:37:43.151Z,4.80
2023-02-25T05:40:44.625Z,4.40
2023-02-25T05:43:46.118Z,4.60
2023-02-25T05:46:47.707Z,4.80
2023-02-25T05:49:49.362Z,5.00
2023-02-25T05:52:50.877Z,4.80
2023-02-25T05:55:52.364Z,5.00
2023-02-25T05:58:56.957Z,5.20
2023-02-25T06:01:58.503Z,4.80
2023-02-25T06:05:00.095Z,5.00
2023-02-25T06:08:01.621Z,4.80
2023-02-25T06:11:05.240Z,4.80
2023-02-25T06:14:06.727Z,5.10
2023-02-25T06:17:08.185Z,4.50
2023-02-25T06:20:10.078Z,5.00
2023-02-25T06:23:11.602Z,4.80
2023-02-25T06:26:14.338Z,5.00
2023-02-25T06:29:15.918Z,4.10
2023-02-25T06:32:17.698Z,4.70
2023-02-25T06:35:23.217Z,4.90
2023-02-25T06:38:25.233Z,5.00
2023-02-25T06:41:26.770Z,5.10
2023-02-25T06:44:29.415Z,4.90
2023-02-25T06:47:31.569Z,4.60
2023-02-25T06:50:33.245Z,4.80
2023-02-25T06:53:35.858Z,4.80
2023-02-25T06:56:37.318Z,4.90
2023-02-25T06:59:38.792Z,4.80
2023-02-25T07:02:40.273Z,4.90
2023-02-25T07:05:41.731Z,4.90
2023-02-25T07:08:45.200Z,5.10
2023-02-25T07:11:46.709Z,5.40
2023-02-25T07:14:48.647Z,4.90
2023-02-25T07:17:50.237Z,5.20
2023-02-25T07:20:51.719Z,6.40
2023-02-25T07:23:53.256Z,4.70
2023-02-25T07:26:55.528Z,5.00
2023-02-25T07:29:57.003Z,5.20
2023-02-25T07:32:58.592Z,6.90
2023-02-25T07:36:00.130Z,4.90
2023-02-25T07:39:03.224Z,4.90
2023-02-25T07:42:04.750Z,5.90
2023-02-25T07:45:06.895Z,5.30
2023-02-25T07:48:08.674Z,5.20
2023-02-25T07:51:11.323Z,5.20
2023-02-25T07:54:14.529Z,5.10
2023-02-25T07:57:16.078Z,5.10
2023-02-25T08:00:17.838Z,4.80
2023-02-25T08:03:19.335Z,5.10
2023-02-25T08:06:21.242Z,5.10
2023-02-25T08:09:22.718Z,5.20
2023-02-25T08:12:24.177Z,5.50
2023-02-25T08:15:25.666Z,5.30
2023-02-25T08:18:27.130Z,5.20
2023-02-25T08:21:28.619Z,4.80
2023-02-25T08:24:30.529Z,4.80
2023-02-25T08:27:32.174Z,5.10
2023-02-25T08:30:33.816Z,4.60
2023-02-25T08:33:35.324Z,5.30
2023-02-25T08:36:37.326Z,5.40
2023-02-25T08:39:38.853Z,5.20
2023-02-25T08:42:40.511Z,6.90
2023-02-25T08:45:42.100Z,5.30
2023-02-25T08:48:43.662Z,5.50
2023-02-25T08:51:45.226Z,6.30
2023-02-25T08:54:46.827Z,5.50
2023-02-25T08:57:48.296Z,6.70
2023-02-25T09:00:50.061Z,5.60
2023-02-25T09:03:54.948Z,5.80
2023-02-25T09:06:58.332Z,6.30
2023-02-25T09:09:59.892Z,5.90
2023-02-25T09:13:01.439Z,5.50
2023-02-25T09:16:03.270Z,6.00
2023-02-25T09:19:05.746Z,5.60
2023-02-25T09:22:08.141Z,6.00
2023-02-25T09:25:09.688Z,6.00
2023-02-25T09:28:12.181Z,6.10
2023-02-25T09:31:14.413Z,5.90
2023-02-25T09:34:15.940Z,6.00
2023-02-25T09:37:19.544Z,5.60
2023-02-25T09:40:23.740Z,5.90
2023-02-25T09:43:28.115Z,5.80
2023-02-25T09:46:30.827Z,5.70
2023-02-25T09:49:38.549Z,5.80
2023-02-25T09:52:42.454Z,5.70
2023-02-25T09:55:47.550Z,5.40
2023-02-25T09:58:58.126Z,6.10
2023-02-25T10:02:15.346Z,5.20
2023-02-25T10:05:39.130Z,5.30
2023-02-25T10:09:01.508Z,5.10
2023-02-25T10:12:15.160Z,5.30
2023-02-25T10:15:27.524Z,5.10
2023-02-25T10:18:34.920Z,4.90
2023-02-25T10:22:00.770Z,5.50
2023-02-25T10:25:15.230Z,5.10
2023-02-25T10:28:17.934Z,5.30
2023-02-25T10:31:21.027Z,6.60
2023-02-25T10:34:26.079Z,5.40
2023-02-25T10:37:32.708Z,5.20
2023-02-25T10:40:34.190Z,5.40
2023-02-25T10:43:35.788Z,5.30
2023-02-25T10:46:49.959Z,5.20
2023-02-25T10:50:11.010Z,5.40
2023-02-25T10:53:17.669Z,5.60
2023-02-25T10:56:22.659Z,6.30
2023-02-25T10:59:29.445Z,6.20
2023-02-25T11:02:36.057Z,6.70
2023-02-25T11:05:40.577Z,6.40
2023-02-25T11:08:42.392Z,6.50
2023-02-25T11:11:52.618Z,6.70
2023-02-25T11:14:54.158Z,6.80
2023-02-25T11:17:58.898Z,6.70
2023-02-25T11:21:08.324Z,6.50
2023-02-25T11:24:22.448Z,6.30
2023-02-25T11:27:37.894Z,5.90
2023-02-25T11:30:40.596Z,6.10
2023-02-25T11:33:44.176Z,5.50
2023-02-25T11:36:46.869Z,6.80
2023-02-25T11:39:54.936Z,7.20
2023-02-25T11:43:19.990Z,6.30
2023-02-25T11:46:23.852Z,6.70
2023-02-25T11:49:44.091Z,8.60
2023-02-25T11:52:57.037Z,7.30
2023-02-25T11:56:20.830Z,7.30
2023-02-25T11:59:51.888Z,6.60
2023-02-25T12:03:05.666Z,5.80
2023-02-25T12:06:13.440Z,7.60
2023-02-25T12:09:17.443Z,5.50
2023-02-25T12:12:19.560Z,5.10
2023-02-25T12:15:39.578Z,5.30
2023-02-25T12:18:50.338Z,5.20
2023-02-25T12:22:14.987Z,5.50
2023-02-25T12:25:25.804Z,5.50
2023-02-25T12:28:30.520Z,6.10
2023-02-25T12:31:54.666Z,6.40
2023-02-25T12:35:15.923Z,6.50
2023-02-25T12:38:24.402Z,6.50
2023-02-25T12:41:38.573Z,8.60
2023-02-25T12:44:52.836Z,7.40
2023-02-25T12:47:57.535Z,8.00
2023-02-25T12:51:17.528Z,7.00
2023-02-25T12:54:36.436Z,5.00
2023-02-25T12:57:59.346Z,7.30
2023-02-25T13:01:07.509Z,6.30
2023-02-25T13:04:09.065Z,6.50
2023-02-25T13:07:18.120Z,6.70
2023-02-25T13:10:35.709Z,7.10
2023-02-25T13:13:52.159Z,7.20
2023-02-25T13:17:08.701Z,6.60
2023-02-25T13:20:19.345Z,6.40
2023-02-25T13:23:26.885Z,6.10
2023-02-25T13:26:37.646Z,6.10
2023-02-25T13:29:39.168Z,6.60
2023-02-25T13:32:57.487Z,7.60
2023-02-25T13:36:05.065Z,6.80
2023-02-25T13:39:16.756Z,7.50
2023-02-25T13:42:30.422Z,7.20
2023-02-25T13:45:51.138Z,7.00
2023-02-25T13:49:16.031Z,6.00
2023-02-25T13:52:29.998Z,8.90
2023-02-25T13:55:50.962Z,6.90
2023-02-25T13:59:01.612Z,6.70
2023-02-25T14:02:03.842Z,7.10
2023-02-25T14:05:23.639Z,7.40
2023-02-25T14:08:36.672Z,7.00
2023-02-25T14:12:11.329Z,7.10
2023-02-25T14:15:43.623Z,6.90
2023-02-25T14:18:57.035Z,6.70
2023-02-25T14:22:11.720Z,6.70
2023-02-25T14:25:16.274Z,6.90
2023-02-25T14:28:36.693Z,6.60
2023-02-25T14:31:38.288Z,6.90
2023-02-25T14:34:44.218Z,6.50
2023-02-25T14:37:54.809Z,6.90
2023-02-25T14:41:07.594Z,6.60
2023-02-25T14:44:20.483Z,6.30
2023-02-25T14:47:22.665Z,6.30
2023-02-25T14:50:31.102Z,4.50
2023-02-25T14:53:39.770Z,5.90
2023-02-25T14:56:47.009Z,6.20
2023-02-25T14:59:55.332Z,7.00
2023-02-25T15:03:05.949Z,6.60
2023-02-25T15:06:34.092Z,6.40
2023-02-25T15:09:47.131Z,6.40
2023-02-25T15:12:54.781Z,6.50
2023-02-25T15:16:28.776Z,6.00
2023-02-25T15:19:34.370Z,6.50
2023-02-25T15:22:37.720Z,6.30
2023-02-25T15:25:41.092Z,6.10
2023-02-25T15:28:47.047Z,6.20
2023-02-25T15:32:07.625Z,6.60
2023-02-25T15:35:12.339Z,6.20
2023-02-25T15:38:22.612Z,6.40
2023-02-25T15:41:27.275Z,6.30
2023-02-25T15:44:35.056Z,6.70
2023-02-25T15:47:36.660Z,6.40
2023-02-25T15:50:43.985Z,6.90
2023-02-25T15:53:45.994Z,6.70
2023-02-25T15:56:49.253Z,7.10
2023-02-25T15:59:57.923Z,6.90
2023-02-25T16:03:01.667Z,7.00
2023-02-25T16:06:07.023Z,6.70
2023-02-25T16:09:10.461Z,6.70
2023-02-25T16:12:14.547Z,6.80
2023-02-25T16:15:25.475Z,6.40
2023-02-25T16:18:37.504Z,6.30
2023-02-25T16:21:40.997Z,7.50
2023-02-25T16:24:46.183Z,6.00
2023-02-25T16:27:47.877Z,5.90
2023-02-25T16:30:54.560Z,7.90
2023-02-25T16:34:01.540Z,5.90
2023-02-25T16:37:15.044Z,5.70
2023-02-25T16:40:21.328Z,5.70
2023-02-25T16:43:25.883Z,5.80
2023-02-25T16:46:32.000Z,5.50
2023-02-25T16:49:37.092Z,5.60
2023-02-25T16:52:40.866Z,5.50
2023-02-25T16:55:42.620Z,5.20
2023-02-25T16:58:44.106Z,5.50
2023-02-25T17:01:57.363Z,5.30
2023-02-25T17:04:58.872Z,5.00
2023-02-25T17:08:02.421Z,5.30
2023-02-25T17:11:04.722Z,6.60
2023-02-25T17:14:06.482Z,5.10
2023-02-25T17:17:14.318Z,6.50
2023-02-25T17:20:23.424Z,5.10
2023-02-25T17:23:25.002Z,4.90
2023-02-25T17:26:26.893Z,4.70
2023-02-25T17:29:35.373Z,4.60
2023-02-25T17:32:37.127Z,3.50
2023-02-25T17:35:38.714Z,4.80
2023-02-25T17:38:41.362Z,4.70
2023-02-25T17:41:43.300Z,5.00
2023-02-25T17:44:47.880Z,4.80
2023-02-25T17:47:49.487Z,4.60
2023-02-25T17:50:56.121Z,4.40
2023-02-25T17:54:18.279Z,4.40
2023-02-25T17:57:20.704Z,4.50
2023-02-25T18:00:24.377Z,5.80
2023-02-25T18:03:26.335Z,4.20
2023-02-25T18:06:30.935Z,4.40
2023-02-25T18:09:35.433Z,3.90
2023-02-25T18:12:38.536Z,4.20
2023-02-25T18:15:40.256Z,3.80
2023-02-25T18:18:41.833Z,4.00
2023-02-25T18:21:43.404Z,5.60
2023-02-25T18:24:50.979Z,4.00
2023-02-25T18:27:53.155Z,4.40
2023-02-25T18:30:54.871Z,4.40
2023-02-25T18:33:56.401Z,3.90
2023-02-25T18:36:58.194Z,4.50
2023-02-25T18:39:59.752Z,4.20
2023-02-25T18:43:01.492Z,3.80
2023-02-25T18:46:03.027Z,4.10
2023-02-25T18:49:04.591Z,4.00
2023-02-25T18:52:06.577Z,4.10
2023-02-25T18:55:09.548Z,3.70
2023-02-25T18:58:15.339Z,3.90
2023-02-25T19:01:21.810Z,4.00
2023-02-25T19:04:23.354Z,3.40
2023-02-25T19:07:28.858Z,3.90
2023-02-25T19:10:30.985Z,3.70
2023-02-25T19:13:40.324Z,4.00
2023-02-25T19:16:42.087Z,3.80
2023-02-25T19:19:46.610Z,3.40
2023-02-25T19:22:49.991Z,3.60
2023-02-25T19:26:00.757Z,3.60
2023-02-25T19:29:02.326Z,3.80
2023-02-25T19:32:03.970Z,3.60
2023-02-25T19:35:06.204Z,3.80
2023-02-25T19:38:08.448Z,3.70
2023-02-25T19:41:13.113Z,3.40
2023-02-25T19:44:14.562Z,3.20
2023-02-25T19:47:16.079Z,3.20
2023-02-25T19:50:18.853Z,5.10
2023-02-25T19:53:20.591Z,3.20
2023-02-25T19:56:22.224Z,5.20
2023-02-25T19:59:23.784Z,3.50
2023-02-25T20:02:25.668Z,5.30
2023-02-25T20:05:27.235Z,2.70
2023-02-25T20:08:28.768Z,4.10
2023-02-25T20:11:30.307Z,2.90
2023-02-25T20:14:32.927Z,3.00
2023-02-25T20:17:38.087Z,2.70
2023-02-25T20:20:41.211Z,3.10
2023-02-25T20:23:42.785Z,3.00
2023-02-25T20:26:44.318Z,3.50
2023-02-25T20:29:45.894Z,5.30
2023-02-25T20:32:47.595Z,3.10
2023-02-25T20:35:49.176Z,4.40
2023-02-25T20:39:15.408Z,2.90
2023-02-25T20:42:20.079Z,3.20
2023-02-25T20:45:21.674Z,3.10
2023-02-25T20:48:30.606Z,3.00
2023-02-25T20:51:32.312Z,2.80
2023-02-25T20:54:33.785Z,2.90
2023-02-25T20:57:35.396Z,3.20
2023-02-25T21:00:38.184Z,3.40
2023-02-25T21:03:39.680Z,3.40
2023-02-25T21:06:41.166Z,2.60
2023-02-25T21:09:42.755Z,4.20
2023-02-25T21:12:44.335Z,2.80
2023-02-25T21:15:45.813Z,2.50
2023-02-25T21:18:47.809Z,2.50
2023-02-25T21:21:49.573Z,2.40
2023-02-25T21:24:51.065Z,2.70
2023-02-25T21:27:52.672Z,2.60
2023-02-25T21:31:01.787Z,2.80
2023-02-25T21:34:04.031Z,2.60
2023-02-25T21:37:08.283Z,2.40
2023-02-25T21:40:10.227Z,2.60
2023-02-25T21:43:11.799Z,4.90
2023-02-25T21:46:15.888Z,2.70
2023-02-25T21:49:17.541Z,2.30
2023-02-25T21:52:19.149Z,2.60
2023-02-25T21:55:20.658Z,2.60
2023-02-25T21:58:22.773Z,2.40
2023-02-25T22:01:26.021Z,2.20
2023-02-25T22:04:27.603Z,2.50
2023-02-25T22:07:29.391Z,2.60
2023-02-25T22:10:34.037Z,2.30
2023-02-25T22:13:35.690Z,2.70
2023-02-25T22:16:37.679Z,2.60
2023-02-25T22:19:39.154Z,2.40
2023-02-25T22:22:40.649Z,4.40
2023-02-25T22:25:42.144Z,2.50
2023-02-25T22:28:44.073Z,2.20
2023-02-25T22:31:45.660Z,2.50
2023-02-25T22:34:47.189Z,2.60
2023-02-25T22:37:48.809Z,2.30
2023-02-25T22:40:50.391Z,3.30
2023-02-25T22:43:52.050Z,2.30
2023-02-25T22:46:54.192Z,2.00
2023-02-25T22:49:55.741Z,2.20
2023-02-25T22:52:57.263Z,2.50
2023-02-25T22:56:02.732Z,2.00
2023-02-25T22:59:04.381Z,2.50
2023-02-25T23:02:06.179Z,1.80
2023-02-25T23:05:07.881Z,2.50
2023-02-25T23:08:09.357Z,2.20
2023-02-25T23:11:13.047Z,2.20
2023-02-25T23:14:14.569Z,2.10
2023-02-25T23:17:16.272Z,1.70
2023-02-25T23:20:17.829Z,1.90
2023-02-25T23:23:20.339Z,2.10
2023-02-25T23:26:24.114Z,2.10
2023-02-25T23:29:25.818Z,2.30
2023-02-25T23:32:27.434Z,2.10
2023-02-25T23:35:29.158Z,1.90
2023-02-25T23:38:30.719Z,2.20
2023-02-25T23:41:33.899Z,2.50
2023-02-25T23:44:35.735Z,2.00
2023-02-25T23:47:38.287Z,1.80
2023-02-25T23:50:39.781Z,3.30
2023-02-25T23:53:41.433Z,1.90
2023-02-25T23:56:43.256Z,1.00
2023-02-25T23:59:44.895Z,2.30
